Terminal Aerodrome Forecast
Issued by NWS Austin/San Antonio, TX

Home | Current Version | Previous Version | Text Only | Print | Product List | Glossary On
Versions: 1 2 3 4 5 6 7 8 9 10 11 12 13 14 15 16 17 18 19 20 21 22
000
FTUS44 KEWX 231700
TAFDRT
TAF
KDRT 231729Z 2318/2418 14015G25KT P6SM SCT250
     FM232200 14016KT P6SM SCT060 BKN250
      TEMPO 2322/2402 VRB25G35KT 3SM TSRA BKN040CB
     FM240200 11010KT P6SM BKN250
     FM241600 33010KT P6SM SCT250=

USA.gov is the U.S. government's official web portal to all federal, state and local government web resources and services.